createdAt,value
2018-07-13T00:00:06.454Z,9.52
2018-07-13T00:00:18.976Z,9.52
2018-07-13T00:00:31.426Z,9.52
2018-07-13T00:00:43.851Z,9.52
2018-07-13T00:00:56.266Z,9.52
2018-07-13T00:01:08.694Z,9.52
2018-07-13T00:01:21.114Z,9.52
2018-07-13T00:01:33.525Z,9.52
2018-07-13T00:01:46.078Z,9.52
2018-07-13T00:01:58.491Z,9.52
2018-07-13T00:02:10.890Z,9.52
2018-07-13T00:02:23.300Z,9.52
2018-07-13T00:02:35.729Z,9.52
2018-07-13T00:02:48.146Z,9.52
2018-07-13T00:03:00.590Z,9.52
2018-07-13T00:03:13.014Z,9.52
2018-07-13T00:03:25.436Z,9.52
2018-07-13T00:03:37.853Z,9.52
2018-07-13T00:03:50.262Z,9.52
2018-07-13T00:04:02.722Z,9.52
2018-07-13T00:04:15.148Z,8.92
2018-07-13T00:04:27.569Z,8.92
2018-07-13T00:04:39.982Z,8.92
2018-07-13T00:04:52.383Z,8.92
2018-07-13T00:05:04.805Z,8.92
2018-07-13T00:05:17.208Z,8.92
2018-07-13T00:05:29.621Z,8.92
2018-07-13T00:05:42.036Z,8.92
2018-07-13T00:05:54.449Z,8.92
2018-07-13T00:06:07.049Z,8.92
2018-07-13T00:06:19.461Z,8.92
2018-07-13T00:06:31.889Z,8.92
2018-07-13T00:06:44.303Z,8.92
2018-07-13T00:06:56.707Z,8.92
2018-07-13T00:07:09.157Z,8.92
2018-07-13T00:07:21.548Z,8.92
2018-07-13T00:07:34.016Z,8.92
2018-07-13T00:07:46.425Z,8.92
2018-07-13T00:07:58.832Z,8.92
2018-07-13T00:08:11.252Z,8.92
2018-07-13T00:08:23.671Z,8.92
2018-07-13T00:08:36.086Z,8.92
2018-07-13T00:08:48.492Z,8.92
2018-07-13T00:09:00.907Z,8.92
2018-07-13T00:09:13.313Z,8.92
2018-07-13T00:09:25.893Z,8.92
2018-07-13T00:09:38.310Z,8.92
2018-07-13T00:09:50.701Z,8.92
2018-07-13T00:10:03.114Z,8.92
2018-07-13T00:10:15.564Z,8.92
2018-07-13T00:10:27.965Z,8.92
2018-07-13T00:10:40.379Z,8.92
2018-07-13T00:10:52.788Z,8.92
2018-07-13T00:11:05.276Z,8.92
2018-07-13T00:11:17.677Z,8.92
2018-07-13T00:11:30.147Z,8.92
2018-07-13T00:11:42.540Z,8.92
2018-07-13T00:11:54.938Z,8.92
2018-07-13T00:12:07.349Z,8.92
2018-07-13T00:12:19.755Z,8.92
2018-07-13T00:12:32.184Z,8.92
2018-07-13T00:12:44.572Z,8.92
2018-07-13T00:12:56.974Z,8.92
2018-07-13T00:13:09.513Z,8.92
2018-07-13T00:13:21.928Z,8.92
2018-07-13T00:13:34.336Z,8.92
2018-07-13T00:13:46.728Z,8.92
2018-07-13T00:13:59.116Z,8.92
2018-07-13T00:14:11.512Z,8.92
2018-07-13T00:14:23.901Z,9.93
2018-07-13T00:14:36.328Z,9.93
2018-07-13T00:14:48.741Z,9.93
2018-07-13T00:15:01.134Z,9.93
2018-07-13T00:15:13.634Z,9.93
2018-07-13T00:15:26.158Z,9.93
2018-07-13T00:15:38.557Z,9.93
2018-07-13T00:15:50.947Z,9.93
2018-07-13T00:16:03.386Z,9.93
2018-07-13T00:16:15.800Z,9.93
2018-07-13T00:16:28.204Z,9.93
2018-07-13T00:16:40.615Z,9.93
2018-07-13T00:16:53.017Z,9.93
2018-07-13T00:17:05.425Z,9.93
2018-07-13T00:17:17.817Z,9.93
2018-07-13T00:17:30.235Z,9.93
2018-07-13T00:17:42.632Z,9.93
2018-07-13T00:17:55.070Z,9.93
2018-07-13T00:18:07.511Z,9.93
2018-07-13T00:18:19.908Z,9.93
2018-07-13T00:18:32.304Z,9.93
2018-07-13T00:18:44.708Z,9.93
2018-07-13T00:18:57.100Z,9.93
2018-07-13T00:19:09.507Z,9.93
2018-07-13T00:19:21.905Z,9.93
2018-07-13T00:19:34.337Z,9.93
2018-07-13T00:19:46.742Z,9.93
2018-07-13T00:19:59.140Z,9.93
2018-07-13T00:20:11.597Z,9.93
2018-07-13T00:20:24.019Z,9.93
2018-07-13T00:20:36.412Z,9.93
2018-07-13T00:20:48.792Z,9.93
2018-07-13T00:21:01.182Z,9.93
2018-07-13T00:21:13.582Z,9.93
2018-07-13T00:21:26.001Z,9.93
2018-07-13T00:21:38.401Z,9.93
2018-07-13T00:21:50.817Z,9.93
2018-07-13T00:22:03.228Z,9.93
2018-07-13T00:22:15.654Z,9.93
2018-07-13T00:22:28.064Z,9.93
2018-07-13T00:22:40.464Z,9.93
2018-07-13T00:22:52.881Z,9.93
2018-07-13T00:23:05.439Z,9.93
2018-07-13T00:23:17.829Z,9.93
2018-07-13T00:23:30.249Z,9.93
2018-07-13T00:23:42.659Z,9.93
2018-07-13T00:23:55.051Z,9.93
2018-07-13T00:24:07.477Z,9.93
2018-07-13T00:24:19.889Z,8.09
2018-07-13T00:24:32.301Z,8.09
2018-07-13T00:24:44.695Z,8.09
2018-07-13T00:24:57.101Z,8.09
2018-07-13T00:25:09.530Z,8.09
2018-07-13T00:25:21.940Z,8.09
2018-07-13T00:25:34.364Z,8.09
2018-07-13T00:25:46.784Z,8.09
2018-07-13T00:25:59.180Z,8.09
2018-07-13T00:26:11.600Z,8.09
2018-07-13T00:26:24.017Z,8.09
2018-07-13T00:26:36.431Z,8.09
2018-07-13T00:26:48.844Z,8.09
2018-07-13T00:27:01.256Z,8.09
2018-07-13T00:27:13.692Z,8.09
2018-07-13T00:27:26.104Z,8.09
2018-07-13T00:27:38.540Z,8.09
2018-07-13T00:27:50.958Z,8.09
2018-07-13T00:28:03.360Z,8.09
2018-07-13T00:28:15.968Z,8.09
2018-07-13T00:28:28.383Z,8.09
2018-07-13T00:28:40.826Z,8.09
2018-07-13T00:28:53.228Z,8.09
2018-07-13T00:29:05.619Z,8.09
2018-07-13T00:29:18.027Z,8.09
2018-07-13T00:29:30.423Z,8.09
2018-07-13T00:29:42.832Z,8.09
2018-07-13T00:29:55.241Z,8.09
2018-07-13T00:30:07.678Z,8.09
2018-07-13T00:30:20.090Z,8.09
2018-07-13T00:30:32.565Z,8.09
2018-07-13T00:30:44.967Z,8.09
2018-07-13T00:30:57.366Z,8.09
2018-07-13T00:31:09.794Z,8.09
2018-07-13T00:31:22.217Z,8.09
2018-07-13T00:31:34.632Z,8.09
2018-07-13T00:31:47.054Z,8.09
2018-07-13T00:31:59.484Z,8.09
2018-07-13T00:32:11.889Z,8.09
2018-07-13T00:32:24.299Z,8.09
2018-07-13T00:32:36.694Z,8.09
2018-07-13T00:32:49.094Z,8.09
2018-07-13T00:33:01.496Z,8.09
2018-07-13T00:33:13.908Z,8.09
2018-07-13T00:33:26.335Z,8.09
2018-07-13T00:33:38.880Z,8.09
2018-07-13T00:33:51.281Z,8.09
2018-07-13T00:34:03.723Z,8.09
2018-07-13T00:34:16.131Z,8.21
2018-07-13T00:34:28.539Z,8.21
2018-07-13T00:34:40.948Z,8.21
2018-07-13T00:34:53.351Z,8.21
2018-07-13T00:35:05.762Z,8.21
2018-07-13T00:35:18.161Z,8.21
2018-07-13T00:35:30.594Z,8.21
2018-07-13T00:35:43.007Z,8.21
2018-07-13T00:35:55.391Z,8.21
2018-07-13T00:36:07.796Z,8.21
2018-07-13T00:36:20.180Z,8.21
2018-07-13T00:36:32.581Z,8.21
2018-07-13T00:36:44.991Z,8.21
2018-07-13T00:36:57.395Z,8.21
2018-07-13T00:37:09.790Z,8.21
2018-07-13T00:37:22.186Z,8.21
2018-07-13T00:37:34.822Z,8.21
2018-07-13T00:37:47.227Z,8.21
2018-07-13T00:37:59.622Z,8.21
2018-07-13T00:38:12.085Z,8.21
2018-07-13T00:38:24.493Z,8.21
2018-07-13T00:38:36.945Z,8.21
2018-07-13T00:38:49.366Z,8.21
2018-07-13T00:39:01.984Z,8.21
2018-07-13T00:39:14.406Z,8.21
2018-07-13T00:39:26.809Z,8.21
2018-07-13T00:39:39.206Z,8.21
2018-07-13T00:39:51.735Z,8.21
2018-07-13T00:40:04.181Z,8.21
2018-07-13T00:40:16.592Z,8.21
2018-07-13T00:40:29.003Z,8.21
2018-07-13T00:40:41.416Z,8.21
2018-07-13T00:40:53.836Z,8.21
2018-07-13T00:41:06.256Z,8.21
2018-07-13T00:41:18.681Z,8.21
2018-07-13T00:41:31.079Z,8.21
2018-07-13T00:41:43.513Z,8.21
2018-07-13T00:41:55.915Z,8.21
2018-07-13T00:42:08.314Z,8.21
2018-07-13T00:42:20.727Z,8.21
2018-07-13T00:42:33.174Z,8.21
2018-07-13T00:42:45.579Z,8.21
2018-07-13T00:42:58.041Z,8.21
2018-07-13T00:43:10.460Z,8.21
2018-07-13T00:43:22.871Z,8.21
2018-07-13T00:43:35.271Z,8.21
2018-07-13T00:43:47.674Z,8.21
2018-07-13T00:44:00.201Z,8.21
2018-07-13T00:44:12.621Z,8.21
2018-07-13T00:44:25.032Z,11.98
2018-07-13T00:44:37.460Z,11.98
2018-07-13T00:44:49.863Z,11.98
2018-07-13T00:45:02.311Z,11.98
2018-07-13T00:45:14.708Z,11.98
2018-07-13T00:45:27.125Z,11.98
2018-07-13T00:45:39.529Z,11.98
2018-07-13T00:45:51.937Z,11.98
2018-07-13T00:46:04.350Z,11.98
2018-07-13T00:46:16.756Z,11.98
2018-07-13T00:46:29.161Z,11.98
2018-07-13T00:46:41.554Z,11.98
2018-07-13T00:46:53.969Z,11.98
2018-07-13T00:47:06.392Z,11.98
2018-07-13T00:47:18.796Z,11.98
2018-07-13T00:47:31.241Z,11.98
2018-07-13T00:47:43.657Z,11.98
2018-07-13T00:47:56.092Z,11.98
2018-07-13T00:48:08.521Z,11.98
2018-07-13T00:48:20.942Z,11.98
2018-07-13T00:48:33.361Z,11.98
2018-07-13T00:48:45.937Z,11.98
2018-07-13T00:48:58.357Z,11.98
2018-07-13T00:49:10.777Z,11.98
2018-07-13T00:49:23.188Z,11.98
2018-07-13T00:49:35.604Z,11.98
2018-07-13T00:49:48.006Z,11.98
2018-07-13T00:50:00.401Z,11.98
2018-07-13T00:50:12.852Z,11.98
2018-07-13T00:50:25.326Z,11.98
2018-07-13T00:50:37.737Z,11.98
2018-07-13T00:50:50.219Z,11.98
2018-07-13T00:51:02.797Z,11.98
2018-07-13T00:51:15.277Z,11.98
2018-07-13T00:51:27.681Z,11.98
2018-07-13T00:51:40.082Z,11.98
2018-07-13T00:51:52.471Z,11.98
2018-07-13T00:52:04.887Z,11.98
2018-07-13T00:52:17.300Z,11.98
2018-07-13T00:52:29.716Z,11.98
2018-07-13T00:52:42.142Z,11.98
2018-07-13T00:52:54.543Z,11.98
2018-07-13T00:53:06.995Z,11.98
2018-07-13T00:53:19.412Z,11.98
2018-07-13T00:53:31.817Z,11.98
2018-07-13T00:53:44.231Z,11.98
2018-07-13T00:53:56.633Z,11.98
2018-07-13T00:54:09.047Z,11.98
2018-07-13T00:54:21.445Z,10.6
2018-07-13T00:54:33.869Z,10.6
2018-07-13T00:54:46.347Z,10.6
2018-07-13T00:54:58.751Z,10.6
2018-07-13T00:55:11.169Z,10.6
2018-07-13T00:55:23.577Z,10.6
2018-07-13T00:55:36.096Z,10.6
2018-07-13T00:55:48.609Z,10.6
2018-07-13T00:56:01.019Z,10.6
2018-07-13T00:56:13.423Z,10.6
2018-07-13T00:56:25.828Z,10.6
2018-07-13T00:56:38.245Z,10.6
2018-07-13T00:56:50.678Z,10.6
2018-07-13T00:57:03.108Z,10.6
2018-07-13T00:57:15.527Z,10.6
2018-07-13T00:57:27.929Z,10.6
2018-07-13T00:57:40.368Z,10.6
2018-07-13T00:57:52.778Z,10.6
2018-07-13T00:58:05.187Z,10.6
2018-07-13T00:58:17.602Z,10.6
2018-07-13T00:58:29.996Z,10.6
2018-07-13T00:58:42.409Z,10.6
2018-07-13T00:58:54.807Z,10.6
2018-07-13T00:59:07.216Z,10.6
2018-07-13T00:59:19.624Z,10.6
2018-07-13T00:59:32.154Z,10.6
2018-07-13T00:59:44.577Z,10.6
2018-07-13T00:59:57.126Z,10.6
2018-07-13T01:00:09.787Z,10.6
2018-07-13T01:00:22.243Z,10.6
2018-07-13T01:00:34.686Z,10.6
2018-07-13T01:00:47.160Z,10.6
2018-07-13T01:00:59.589Z,10.6
2018-07-13T01:01:12.003Z,10.6
2018-07-13T01:01:24.425Z,10.6
2018-07-13T01:01:36.852Z,10.6
2018-07-13T01:01:49.452Z,10.6
2018-07-13T01:02:01.883Z,10.6
2018-07-13T01:02:14.316Z,10.6
2018-07-13T01:02:26.737Z,10.6
2018-07-13T01:02:39.150Z,10.6
2018-07-13T01:02:51.569Z,10.6
2018-07-13T01:03:04.059Z,10.6
2018-07-13T01:03:16.473Z,10.6
2018-07-13T01:03:28.892Z,10.6
2018-07-13T01:03:41.290Z,10.6
2018-07-13T01:03:53.773Z,10.6
2018-07-13T01:04:06.193Z,10.6
2018-07-13T01:04:18.585Z,10.82
2018-07-13T01:04:31.015Z,10.82
2018-07-13T01:04:43.480Z,10.82
2018-07-13T01:04:55.906Z,10.82
2018-07-13T01:05:08.360Z,10.82
2018-07-13T01:05:20.784Z,10.82
2018-07-13T01:05:33.199Z,10.82
2018-07-13T01:05:45.598Z,10.82
2018-07-13T01:05:58.020Z,10.82
2018-07-13T01:06:10.477Z,10.82
2018-07-13T01:06:22.898Z,10.82
2018-07-13T01:06:35.349Z,10.82
2018-07-13T01:06:47.753Z,10.82
2018-07-13T01:07:00.157Z,10.82
2018-07-13T01:07:12.579Z,10.82
2018-07-13T01:07:25.069Z,10.82
2018-07-13T01:07:37.540Z,10.82
2018-07-13T01:07:49.961Z,10.82
2018-07-13T01:08:02.372Z,10.82
2018-07-13T01:08:14.775Z,10.82
2018-07-13T01:08:27.172Z,10.82
2018-07-13T01:08:39.560Z,10.82
2018-07-13T01:08:51.963Z,10.82
2018-07-13T01:09:04.422Z,10.82
2018-07-13T01:09:17.119Z,10.82
2018-07-13T01:09:29.523Z,10.82
2018-07-13T01:09:41.974Z,10.82
2018-07-13T01:09:54.370Z,10.82
2018-07-13T01:10:06.786Z,10.82
2018-07-13T01:10:19.202Z,10.82
2018-07-13T01:10:31.596Z,10.82
2018-07-13T01:10:44.007Z,10.82
2018-07-13T01:10:56.440Z,10.82
2018-07-13T01:11:09.010Z,10.82
2018-07-13T01:11:21.426Z,10.82
2018-07-13T01:11:33.832Z,10.82
2018-07-13T01:11:46.238Z,10.82
2018-07-13T01:11:58.664Z,10.82
2018-07-13T01:12:11.069Z,10.82
2018-07-13T01:12:23.479Z,10.82
2018-07-13T01:12:35.873Z,10.82
2018-07-13T01:12:48.268Z,10.82
2018-07-13T01:13:00.770Z,10.82
2018-07-13T01:13:13.193Z,10.82
2018-07-13T01:13:25.597Z,10.82
2018-07-13T01:13:38.017Z,10.82
2018-07-13T01:13:50.441Z,10.82
2018-07-13T01:14:02.862Z,10.82
2018-07-13T01:14:15.278Z,10.82
2018-07-13T01:14:27.714Z,10.54
2018-07-13T01:14:40.129Z,10.54
2018-07-13T01:14:52.579Z,10.54
2018-07-13T01:15:05.017Z,10.54
2018-07-13T01:15:17.431Z,10.54
2018-07-13T01:15:29.831Z,10.54
2018-07-13T01:15:42.222Z,10.54
2018-07-13T01:15:54.676Z,10.54
2018-07-13T01:16:07.097Z,10.54
2018-07-13T01:16:19.533Z,10.54
2018-07-13T01:16:31.973Z,10.54
2018-07-13T01:16:44.404Z,10.54
2018-07-13T01:16:56.877Z,10.54
2018-07-13T01:17:09.288Z,10.54
2018-07-13T01:17:21.714Z,10.54
2018-07-13T01:17:34.142Z,10.54
2018-07-13T01:17:46.586Z,10.54
2018-07-13T01:17:58.975Z,10.54
2018-07-13T01:18:11.425Z,10.54
2018-07-13T01:18:23.829Z,10.54
2018-07-13T01:18:36.239Z,10.54
2018-07-13T01:18:48.649Z,10.54
2018-07-13T01:19:01.057Z,10.54
2018-07-13T01:19:13.444Z,10.54
2018-07-13T01:19:25.842Z,10.54
2018-07-13T01:19:38.249Z,10.54
2018-07-13T01:19:50.664Z,10.54
2018-07-13T01:20:03.099Z,10.54
2018-07-13T01:20:15.526Z,10.54
2018-07-13T01:20:27.926Z,10.54
2018-07-13T01:20:40.348Z,10.54
2018-07-13T01:20:52.922Z,10.54
2018-07-13T01:21:05.315Z,10.54
2018-07-13T01:21:17.751Z,10.54
2018-07-13T01:21:30.162Z,10.54
2018-07-13T01:21:42.565Z,10.54
2018-07-13T01:21:54.975Z,10.54
2018-07-13T01:22:07.363Z,10.54
2018-07-13T01:22:19.750Z,10.54
2018-07-13T01:22:32.168Z,10.54
2018-07-13T01:22:44.567Z,10.54
2018-07-13T01:22:56.964Z,10.54
2018-07-13T01:23:09.387Z,10.54
2018-07-13T01:23:21.791Z,10.54
2018-07-13T01:23:34.196Z,10.54
2018-07-13T01:23:46.600Z,10.54
2018-07-13T01:23:59.011Z,10.54
2018-07-13T01:24:11.402Z,10.54
2018-07-13T01:24:23.794Z,10.4
2018-07-13T01:24:36.205Z,10.4
2018-07-13T01:24:48.613Z,10.4
2018-07-13T01:25:01.020Z,10.4
2018-07-13T01:25:13.431Z,10.4
2018-07-13T01:25:25.849Z,10.4
2018-07-13T01:25:38.252Z,10.4
2018-07-13T01:25:50.691Z,10.4
2018-07-13T01:26:03.085Z,10.4
2018-07-13T01:26:15.513Z,10.4
2018-07-13T01:26:27.977Z,10.4
2018-07-13T01:26:40.574Z,10.4
2018-07-13T01:26:53.033Z,10.4
2018-07-13T01:27:05.491Z,10.4
2018-07-13T01:27:17.902Z,10.4
2018-07-13T01:27:30.324Z,10.4
2018-07-13T01:27:42.730Z,10.4
2018-07-13T01:27:55.142Z,10.4
2018-07-13T01:28:07.550Z,10.4
2018-07-13T01:28:20.042Z,10.4
2018-07-13T01:28:32.466Z,10.4
2018-07-13T01:28:44.875Z,10.4
2018-07-13T01:28:57.279Z,10.4
2018-07-13T01:29:09.705Z,10.4
2018-07-13T01:29:22.112Z,10.4
2018-07-13T01:29:34.529Z,10.4
2018-07-13T01:29:46.942Z,10.4
2018-07-13T01:29:59.339Z,10.4
2018-07-13T01:30:11.825Z,10.4
2018-07-13T01:30:24.228Z,10.4
2018-07-13T01:30:36.639Z,10.4
2018-07-13T01:30:49.083Z,10.4
2018-07-13T01:31:01.502Z,10.4
2018-07-13T01:31:13.943Z,10.4
2018-07-13T01:31:26.358Z,10.4
2018-07-13T01:31:38.749Z,10.4
2018-07-13T01:31:51.161Z,10.4
2018-07-13T01:32:03.600Z,10.4
2018-07-13T01:32:15.989Z,10.4
2018-07-13T01:32:28.406Z,10.4
2018-07-13T01:32:40.803Z,10.4
2018-07-13T01:32:53.193Z,10.4
2018-07-13T01:33:05.602Z,10.4
2018-07-13T01:33:18.024Z,10.4
2018-07-13T01:33:30.427Z,10.4
2018-07-13T01:33:42.951Z,10.4
2018-07-13T01:33:55.367Z,10.4
2018-07-13T01:34:07.758Z,10.4
2018-07-13T01:34:20.199Z,13.86
2018-07-13T01:34:32.660Z,13.86
2018-07-13T01:34:45.052Z,13.86
2018-07-13T01:34:57.468Z,13.86
2018-07-13T01:35:09.891Z,13.86
2018-07-13T01:35:22.296Z,13.86
2018-07-13T01:35:34.693Z,13.86
2018-07-13T01:35:47.111Z,13.86
2018-07-13T01:35:59.511Z,13.86
2018-07-13T01:36:11.912Z,13.86
2018-07-13T01:36:24.312Z,13.86
2018-07-13T01:36:36.719Z,13.86
2018-07-13T01:36:49.151Z,13.86
2018-07-13T01:37:01.563Z,13.86
2018-07-13T01:37:14.002Z,13.86
2018-07-13T01:37:26.472Z,13.86
2018-07-13T01:37:39.257Z,13.86
2018-07-13T01:37:51.658Z,13.86
2018-07-13T01:38:04.057Z,13.86
2018-07-13T01:38:16.486Z,13.86
2018-07-13T01:38:28.985Z,13.86
2018-07-13T01:38:41.408Z,13.86
2018-07-13T01:38:53.975Z,13.86
2018-07-13T01:39:06.371Z,13.86
2018-07-13T01:39:18.787Z,13.86
2018-07-13T01:39:31.202Z,13.86
2018-07-13T01:39:43.630Z,13.86
2018-07-13T01:39:56.062Z,13.86
2018-07-13T01:40:08.473Z,13.86
2018-07-13T01:40:20.863Z,13.86
2018-07-13T01:40:33.292Z,13.86
2018-07-13T01:40:45.689Z,13.86
2018-07-13T01:40:58.113Z,13.86
2018-07-13T01:41:10.524Z,13.86
2018-07-13T01:41:22.940Z,13.86
2018-07-13T01:41:35.345Z,13.86
2018-07-13T01:41:47.767Z,13.86
2018-07-13T01:42:00.208Z,13.86
2018-07-13T01:42:12.627Z,13.86
2018-07-13T01:42:25.017Z,13.86
2018-07-13T01:42:37.430Z,13.86
2018-07-13T01:42:49.855Z,13.86
2018-07-13T01:43:02.239Z,13.86
2018-07-13T01:43:14.642Z,13.86
2018-07-13T01:43:27.062Z,13.86
2018-07-13T01:43:39.489Z,13.86
2018-07-13T01:43:51.886Z,13.86
2018-07-13T01:44:04.393Z,13.86
2018-07-13T01:44:16.798Z,13.86
2018-07-13T01:44:29.189Z,10.29
2018-07-13T01:44:41.609Z,10.29
2018-07-13T01:44:54.006Z,10.29
2018-07-13T01:45:06.432Z,10.29
2018-07-13T01:45:18.889Z,10.29
2018-07-13T01:45:31.316Z,10.29
2018-07-13T01:45:43.728Z,10.29
2018-07-13T01:45:56.164Z,10.29
2018-07-13T01:46:08.581Z,10.29
2018-07-13T01:46:21.039Z,10.29
2018-07-13T01:46:33.464Z,10.29
2018-07-13T01:46:45.895Z,10.29
2018-07-13T01:46:58.343Z,10.29
2018-07-13T01:47:10.752Z,10.29
2018-07-13T01:47:23.162Z,10.29
2018-07-13T01:47:35.636Z,10.29
2018-07-13T01:47:48.036Z,10.29
2018-07-13T01:48:00.437Z,10.29
2018-07-13T01:48:12.910Z,10.29
2018-07-13T01:48:25.353Z,10.29
2018-07-13T01:48:37.754Z,10.29
2018-07-13T01:48:50.323Z,10.29
2018-07-13T01:49:02.761Z,10.29
2018-07-13T01:49:15.181Z,10.29
2018-07-13T01:49:27.602Z,10.29
2018-07-13T01:49:40.017Z,10.29
2018-07-13T01:49:52.428Z,10.29
2018-07-13T01:50:04.914Z,10.29
2018-07-13T01:50:17.319Z,10.29
2018-07-13T01:50:29.744Z,10.29
2018-07-13T01:50:42.148Z,10.29
2018-07-13T01:50:54.556Z,10.29
2018-07-13T01:51:07.179Z,10.29
2018-07-13T01:51:19.577Z,10.29
2018-07-13T01:51:31.990Z,10.29
2018-07-13T01:51:44.402Z,10.29
2018-07-13T01:51:56.842Z,10.29
2018-07-13T01:52:09.320Z,10.29
2018-07-13T01:52:21.736Z,10.29
2018-07-13T01:52:34.156Z,10.29
2018-07-13T01:52:46.550Z,10.29
2018-07-13T01:52:58.950Z,10.29
2018-07-13T01:53:11.446Z,10.29
2018-07-13T01:53:23.849Z,10.29
2018-07-13T01:53:36.285Z,10.29
2018-07-13T01:53:48.698Z,10.29
2018-07-13T01:54:01.142Z,10.29
2018-07-13T01:54:13.560Z,10.29
2018-07-13T01:54:25.983Z,13.2
2018-07-13T01:54:38.457Z,13.2
2018-07-13T01:54:50.905Z,13.2
2018-07-13T01:55:03.317Z,13.2
2018-07-13T01:55:15.744Z,13.2
2018-07-13T01:55:28.137Z,13.2
2018-07-13T01:55:41.405Z,13.2
2018-07-13T01:55:54.625Z,13.2
2018-07-13T01:56:07.044Z,13.2
2018-07-13T01:56:19.522Z,13.2
2018-07-13T01:56:31.909Z,13.2
2018-07-13T01:56:44.321Z,13.2
2018-07-13T01:56:56.732Z,13.2
2018-07-13T01:57:09.139Z,13.2
2018-07-13T01:57:21.525Z,13.2
2018-07-13T01:57:33.939Z,13.2
2018-07-13T01:57:46.369Z,13.2
2018-07-13T01:57:58.935Z,13.2
2018-07-13T01:58:11.365Z,13.2
2018-07-13T01:58:23.792Z,13.2
2018-07-13T01:58:36.200Z,13.2
2018-07-13T01:58:48.609Z,13.2
2018-07-13T01:59:01.039Z,13.2
2018-07-13T01:59:13.474Z,13.2
2018-07-13T01:59:25.895Z,13.2
2018-07-13T01:59:38.305Z,13.2
2018-07-13T01:59:50.866Z,13.2
2018-07-13T02:00:03.316Z,13.2
2018-07-13T02:00:16.072Z,13.2
2018-07-13T02:00:28.509Z,13.2
2018-07-13T02:00:40.941Z,13.2
2018-07-13T02:00:53.392Z,13.2
2018-07-13T02:01:05.845Z,13.2
2018-07-13T02:01:18.253Z,13.2
2018-07-13T02:01:30.804Z,13.2
2018-07-13T02:01:43.228Z,13.2
2018-07-13T02:01:55.815Z,13.2
2018-07-13T02:02:08.216Z,13.2
2018-07-13T02:02:20.645Z,13.2
2018-07-13T02:02:33.034Z,13.2
2018-07-13T02:02:45.452Z,13.2
2018-07-13T02:02:57.852Z,13.2
2018-07-13T02:03:10.264Z,13.2
2018-07-13T02:03:22.678Z,13.2
2018-07-13T02:03:35.085Z,13.2
2018-07-13T02:03:47.547Z,13.2
2018-07-13T02:03:59.954Z,13.2
2018-07-13T02:04:12.434Z,13.2
2018-07-13T02:04:24.857Z,11.18
2018-07-13T02:04:37.283Z,11.18
2018-07-13T02:04:49.702Z,11.18
2018-07-13T02:05:02.141Z,11.18
2018-07-13T02:05:14.561Z,11.18
2018-07-13T02:05:26.998Z,11.18
2018-07-13T02:05:39.399Z,11.18
2018-07-13T02:05:51.830Z,11.18
2018-07-13T02:06:04.270Z,11.18
2018-07-13T02:06:16.676Z,11.18
2018-07-13T02:06:29.123Z,11.18
2018-07-13T02:06:41.541Z,11.18
2018-07-13T02:06:54.011Z,11.18
2018-07-13T02:07:06.422Z,11.18
2018-07-13T02:07:18.844Z,11.18
2018-07-13T02:07:31.250Z,11.18
2018-07-13T02:07:43.646Z,11.18
2018-07-13T02:07:56.052Z,11.18
2018-07-13T02:08:08.468Z,11.18
2018-07-13T02:08:20.884Z,11.18
2018-07-13T02:08:33.317Z,11.18
2018-07-13T02:08:45.730Z,11.18
2018-07-13T02:08:58.155Z,11.18
2018-07-13T02:09:10.561Z,11.18
2018-07-13T02:09:23.326Z,11.18
2018-07-13T02:09:35.737Z,11.18
2018-07-13T02:09:48.147Z,11.18
2018-07-13T02:10:00.555Z,11.18
2018-07-13T02:10:12.959Z,11.18
2018-07-13T02:10:25.384Z,11.18
2018-07-13T02:10:37.785Z,11.18
2018-07-13T02:10:50.246Z,11.18
2018-07-13T02:11:02.804Z,11.18
2018-07-13T02:11:15.212Z,11.18
2018-07-13T02:11:27.611Z,11.18
2018-07-13T02:11:40.022Z,11.18
2018-07-13T02:11:52.441Z,11.18
2018-07-13T02:12:04.853Z,11.18
2018-07-13T02:12:17.274Z,11.18
2018-07-13T02:12:29.681Z,11.18
2018-07-13T02:12:42.121Z,11.18
2018-07-13T02:12:54.523Z,11.18
2018-07-13T02:13:07.031Z,11.18
2018-07-13T02:13:19.552Z,11.18
2018-07-13T02:13:31.988Z,11.18
2018-07-13T02:13:44.402Z,11.18
2018-07-13T02:13:56.803Z,11.18
2018-07-13T02:14:09.217Z,11.18
2018-07-13T02:14:21.634Z,10.75
2018-07-13T02:14:34.059Z,10.75
2018-07-13T02:14:46.457Z,10.75
2018-07-13T02:14:58.868Z,10.75
2018-07-13T02:15:11.294Z,10.75
2018-07-13T02:15:23.702Z,10.75
2018-07-13T02:15:36.109Z,10.75
2018-07-13T02:15:48.540Z,10.75
2018-07-13T02:16:00.956Z,10.75
2018-07-13T02:16:13.364Z,10.75
2018-07-13T02:16:25.767Z,10.75
2018-07-13T02:16:38.173Z,10.75
2018-07-13T02:16:50.615Z,10.75
2018-07-13T02:17:03.050Z,10.75
2018-07-13T02:17:15.471Z,10.75
2018-07-13T02:17:27.932Z,10.75
2018-07-13T02:17:40.347Z,10.75
2018-07-13T02:17:52.983Z,10.75
2018-07-13T02:18:05.433Z,10.75
2018-07-13T02:18:17.987Z,10.75
2018-07-13T02:18:30.428Z,10.75
2018-07-13T02:18:42.860Z,10.75
2018-07-13T02:18:55.289Z,10.75
2018-07-13T02:19:07.815Z,10.75
2018-07-13T02:19:20.236Z,10.75
2018-07-13T02:19:32.635Z,10.75
2018-07-13T02:19:45.040Z,10.75
2018-07-13T02:19:57.443Z,10.75
2018-07-13T02:20:09.863Z,10.75
2018-07-13T02:20:22.300Z,10.75
2018-07-13T02:20:34.730Z,10.75
2018-07-13T02:20:47.148Z,10.75
2018-07-13T02:20:59.569Z,10.75
2018-07-13T02:21:12.062Z,10.75
2018-07-13T02:21:24.463Z,10.75
2018-07-13T02:21:36.884Z,10.75
2018-07-13T02:21:49.345Z,10.75
2018-07-13T02:22:01.779Z,10.75
2018-07-13T02:22:14.209Z,10.75
2018-07-13T02:22:26.638Z,10.75
2018-07-13T02:22:39.056Z,10.75
2018-07-13T02:22:51.488Z,10.75
2018-07-13T02:23:03.906Z,10.75
2018-07-13T02:23:16.314Z,10.75
2018-07-13T02:23:28.717Z,10.75
2018-07-13T02:23:41.140Z,10.75
2018-07-13T02:23:53.551Z,10.75
2018-07-13T02:24:05.949Z,10.75
2018-07-13T02:24:18.399Z,10.75
2018-07-13T02:24:30.803Z,10.7
2018-07-13T02:24:43.197Z,10.7
2018-07-13T02:24:55.605Z,10.7
2018-07-13T02:25:08.029Z,10.7
2018-07-13T02:25:20.457Z,10.7
2018-07-13T02:25:32.862Z,10.7
2018-07-13T02:25:45.310Z,10.7
2018-07-13T02:25:57.710Z,10.7
2018-07-13T02:26:10.126Z,10.7
2018-07-13T02:26:22.535Z,10.7
2018-07-13T02:26:34.980Z,10.7
2018-07-13T02:26:47.392Z,10.7
2018-07-13T02:26:59.810Z,10.7
2018-07-13T02:27:12.381Z,10.7
2018-07-13T02:27:24.791Z,10.7
2018-07-13T02:27:37.196Z,10.7
2018-07-13T02:27:49.622Z,10.7
2018-07-13T02:28:02.036Z,10.7
2018-07-13T02:28:14.606Z,10.7
2018-07-13T02:28:27.015Z,10.7
2018-07-13T02:28:39.432Z,10.7
2018-07-13T02:28:51.857Z,10.7
2018-07-13T02:29:04.261Z,10.7
2018-07-13T02:29:16.666Z,10.7
2018-07-13T02:29:29.083Z,10.7
2018-07-13T02:29:41.508Z,10.7
2018-07-13T02:29:53.905Z,10.7
2018-07-13T02:30:06.352Z,10.7
2018-07-13T02:30:18.810Z,10.7
2018-07-13T02:30:31.274Z,10.7
2018-07-13T02:30:43.696Z,10.7
2018-07-13T02:30:56.170Z,10.7
2018-07-13T02:31:08.646Z,10.7
2018-07-13T02:31:21.089Z,10.7
2018-07-13T02:31:33.532Z,10.7
2018-07-13T02:31:45.970Z,10.7
2018-07-13T02:31:58.496Z,10.7
2018-07-13T02:32:10.933Z,10.7
2018-07-13T02:32:23.373Z,10.7
2018-07-13T02:32:35.785Z,10.7
2018-07-13T02:32:48.231Z,10.7
2018-07-13T02:33:00.723Z,10.7
2018-07-13T02:33:13.202Z,10.7
2018-07-13T02:33:25.614Z,10.7
2018-07-13T02:33:38.203Z,10.7
2018-07-13T02:33:51.352Z,10.7
2018-07-13T02:34:04.834Z,10.7
2018-07-13T02:34:17.293Z,10.7
2018-07-13T02:34:29.725Z,9.96
2018-07-13T02:34:42.206Z,9.96
2018-07-13T02:34:54.676Z,9.96
2018-07-13T02:35:07.341Z,9.96
2018-07-13T02:35:19.795Z,9.96
2018-07-13T02:35:32.253Z,9.96
2018-07-13T02:35:44.731Z,9.96
2018-07-13T02:35:57.211Z,9.96
2018-07-13T02:36:09.710Z,9.96
2018-07-13T02:36:22.181Z,9.96
2018-07-13T02:36:34.616Z,9.96
2018-07-13T02:36:47.156Z,9.96
2018-07-13T02:36:59.651Z,9.96
2018-07-13T02:37:12.104Z,9.96
2018-07-13T02:37:24.562Z,9.96
2018-07-13T02:37:37.145Z,9.96
2018-07-13T02:37:49.583Z,9.96
2018-07-13T02:38:02.132Z,9.96
2018-07-13T02:38:14.561Z,9.96
2018-07-13T02:38:27.030Z,9.96
2018-07-13T02:38:39.457Z,9.96
2018-07-13T02:38:52.042Z,9.96
2018-07-13T02:39:05.315Z,9.96
2018-07-13T02:39:18.867Z,9.96
2018-07-13T02:39:31.308Z,9.96
2018-07-13T02:39:43.767Z,9.96
2018-07-13T02:39:56.271Z,9.96
2018-07-13T02:40:08.780Z,9.96
2018-07-13T02:40:21.288Z,9.96
2018-07-13T02:40:33.752Z,9.96
2018-07-13T02:40:46.190Z,9.96
2018-07-13T02:40:58.642Z,9.96
2018-07-13T02:41:11.076Z,9.96
2018-07-13T02:41:23.508Z,9.96
2018-07-13T02:41:35.945Z,9.96
2018-07-13T02:41:48.434Z,9.96
2018-07-13T02:42:00.902Z,9.96
2018-07-13T02:42:13.351Z,9.96
2018-07-13T02:42:25.816Z,9.96
2018-07-13T02:42:38.247Z,9.96
2018-07-13T02:42:50.677Z,9.96
2018-07-13T02:43:03.127Z,9.96
2018-07-13T02:43:15.546Z,9.96